Time;durP1;ratioP1;P1;durP2;ratioP2;P2;SDS_P1;SDS_P2;PMS_P1;PMS_P2;Temp;Humidity;BMP_temperature;BMP_pressure;BME280_temperature;BME280_humidity;BME280_pressure;Samples;Min_cycle;Max_cycle;Signal;HPM_P1;HPM_P2
2023/10/05 00:01:45;;;;;;;3.62;2.20;;;;;;;13.58;62.06;100912.52;1747610;82;21051;-75
2023/10/05 00:04:03;;;;;;;5.28;2.15;;;;;;;13.58;62.06;100916.64;1756720;81;21444;-75
2023/10/05 00:06:32;;;;;;;6.17;2.10;;;;;;;13.61;62.06;100915.39;1747080;82;21039;-75
2023/10/05 00:09:05;;;;;;;5.05;1.98;;;;;;;13.62;62.00;100923.44;1758937;81;21451;-75
2023/10/05 00:11:36;;;;;;;5.05;1.90;;;;;;;13.63;61.94;100921.02;1747201;82;21032;-76
2023/10/05 00:14:10;;;;;;;4.33;2.15;;;;;;;13.64;61.92;100907.56;1758902;81;21051;-75
2023/10/05 00:16:39;;;;;;;5.40;2.20;;;;;;;13.64;61.88;100915.83;1747168;82;21051;-76
2023/10/05 00:19:13;;;;;;;5.50;2.40;;;;;;;13.64;61.84;100913.59;1758770;81;21031;-76
2023/10/05 00:21:51;;;;;;;5.78;1.98;;;;;;;13.64;61.82;100924.61;1747047;82;21035;-75
2023/10/05 00:24:29;;;;;;;5.62;2.12;;;;;;;13.62;61.88;100917.09;1758724;81;21062;-74
2023/10/05 00:26:56;;;;;;;5.03;2.50;;;;;;;13.61;61.89;100921.74;1757813;81;21031;-76
2023/10/05 00:29:40;;;;;;;5.35;2.42;;;;;;;13.59;62.01;100921.63;1747367;82;21095;-76
2023/10/05 00:31:59;;;;;;;3.15;2.20;;;;;;;13.55;62.18;100922.56;1755740;81;21043;-75
2023/10/05 00:34:28;;;;;;;5.83;2.40;;;;;;;13.52;62.36;100927.10;1747005;82;21483;-74
2023/10/05 00:36:58;;;;;;;5.42;2.20;;;;;;;13.47;62.38;100929.62;1758856;81;21462;-75
2023/10/05 00:39:31;;;;;;;5.55;2.47;;;;;;;13.44;62.45;100935.53;1747249;82;21039;-76
2023/10/05 00:42:08;;;;;;;7.95;2.45;;;;;;;13.41;62.50;100936.47;1756029;81;21047;-75
2023/10/05 00:44:36;;;;;;;4.75;2.52;;;;;;;13.36;62.58;100927.44;1725164;82;21386;-74
2023/10/05 00:47:06;;;;;;;4.87;2.22;;;;;;;13.35;62.62;100925.73;1741288;82;21449;-75
2023/10/05 00:49:59;;;;;;;4.87;2.65;;;;;;;13.33;62.67;100928.70;1725049;83;21002;-75
2023/10/05 00:52:15;;;;;;;4.87;2.37;;;;;;;13.35;62.73;100924.36;1733579;82;21464;-76
2023/10/05 00:54:48;;;;;;;5.15;2.45;;;;;;;13.36;62.78;100930.19;1725421;83;21061;-73
2023/10/05 00:57:25;;;;;;;4.30;2.30;;;;;;;13.33;62.83;100924.56;1741338;82;21008;-75
2023/10/05 01:03:00;;;;;;;6.55;2.60;;;;;;;13.27;62.93;100929.50;1741274;82;21064;-74
2023/10/05 01:05:25;;;;;;;7.60;2.70;;;;;;;13.27;63.00;100931.41;1695732;83;21442;-77
2023/10/05 01:07:56;;;;;;;4.72;2.50;;;;;;;13.26;63.01;100931.09;1740653;82;21083;-76
2023/10/05 01:10:29;;;;;;;4.90;2.45;;;;;;;13.27;63.05;100941.04;1700013;83;21031;-75
2023/10/05 01:12:54;;;;;;;4.97;2.47;;;;;;;13.27;63.14;100947.39;1740667;82;21056;-75
2023/10/05 01:15:28;;;;;;;5.83;2.58;;;;;;;13.23;63.14;100941.97;1725207;83;21043;-76
2023/10/05 01:17:56;;;;;;;3.85;2.33;;;;;;;13.22;63.19;100943.02;1741312;82;21032;-74
2023/10/05 01:20:25;;;;;;;7.00;2.55;;;;;;;13.21;63.24;100941.84;1724948;83;21462;-76
2023/10/05 01:22:55;;;;;;;7.47;2.40;;;;;;;13.23;63.21;100942.50;1741245;82;21455;-76
2023/10/05 01:25:27;;;;;;;4.70;2.52;;;;;;;13.21;63.23;100937.72;1725213;83;21090;-76
2023/10/05 01:27:55;;;;;;;6.53;2.70;;;;;;;13.19;63.25;100943.95;1741437;82;21004;-75
2023/10/05 01:30:24;;;;;;;6.58;2.20;;;;;;;13.19;63.35;100946.70;1725525;83;21082;-75
2023/10/05 01:32:54;;;;;;;5.35;2.30;;;;;;;13.20;63.38;100956.66;1741494;82;21051;-76
2023/10/05 01:35:23;;;;;;;5.10;2.62;;;;;;;13.18;63.38;100953.26;1725022;83;20994;-75
2023/10/05 01:37:52;;;;;;;5.65;3.15;;;;;;;13.17;63.46;100952.94;1741178;82;21095;-76
2023/10/05 01:40:29;;;;;;;6.22;2.52;;;;;;;13.17;63.49;100961.19;1725137;83;21019;-76
2023/10/05 01:42:56;;;;;;;8.95;2.65;;;;;;;13.14;63.52;100960.19;1741111;82;21508;-77
2023/10/05 01:45:34;;;;;;;8.25;3.55;;;;;;;13.09;63.61;100964.06;1725319;83;21006;-75
2023/10/05 01:48:12;;;;;;;5.20;2.70;;;;;;;13.04;63.74;100963.81;1741245;82;21071;-74
2023/10/05 01:50:37;;;;;;;7.45;2.98;;;;;;;12.99;63.87;100964.38;1724711;83;21054;-75
2023/10/05 01:55:35;;;;;;;9.53;2.85;;;;;;;12.90;64.17;100973.83;1725279;83;21429;-75
2023/10/05 01:58:08;;;;;;;5.72;2.75;;;;;;;12.85;64.32;100973.58;1741316;82;21036;-76
2023/10/05 02:00:41;;;;;;;7.03;3.00;;;;;;;12.79;64.51;100971.09;1725023;83;21042;-75
2023/10/05 02:03:13;;;;;;;5.35;2.70;;;;;;;12.75;64.73;100962.91;1741324;82;21083;-75
2023/10/05 02:05:44;;;;;;;5.60;2.80;;;;;;;12.73;64.88;100961.41;1725409;83;21010;-75
2023/10/05 02:08:14;;;;;;;5.78;2.45;;;;;;;12.69;65.06;100966.45;1741141;82;21073;-76
2023/10/05 02:10:46;;;;;;;7.75;2.95;;;;;;;12.67;65.21;100972.67;1725080;83;21090;-75
2023/10/05 02:13:14;;;;;;;8.80;3.30;;;;;;;12.64;65.37;100967.58;1741472;82;21087;-75
2023/10/05 02:15:45;;;;;;;7.87;3.00;;;;;;;12.66;65.44;100980.59;1725094;83;21022;-75
2023/10/05 02:18:24;;;;;;;5.50;2.98;;;;;;;12.63;65.52;100976.88;1741217;82;21494;-75
2023/10/05 02:21:17;;;;;;;9.90;3.27;;;;;;;12.57;65.68;100984.53;1725045;83;21042;-74
2023/10/05 02:23:29;;;;;;;5.20;2.70;;;;;;;12.53;65.88;100985.45;1735525;82;21056;-74
2023/10/05 02:26:01;;;;;;;8.85;3.30;;;;;;;12.48;66.05;100989.83;1725169;83;21046;-75
2023/10/05 02:28:33;;;;;;;7.67;3.15;;;;;;;12.46;66.17;100983.68;1741138;82;20993;-76
2023/10/05 02:31:00;;;;;;;6.80;2.80;;;;;;;12.43;66.31;100982.70;1724885;83;21055;-75
2023/10/05 02:33:32;;;;;;;7.65;3.17;;;;;;;12.42;66.42;100985.11;1741291;82;21456;-75
2023/10/05 02:36:10;;;;;;;7.05;3.30;;;;;;;12.36;66.68;100987.59;1724923;83;21534;-74
2023/10/05 02:38:32;;;;;;;6.00;2.90;;;;;;;12.31;66.93;100979.58;1740152;82;21056;-74
2023/10/05 02:41:05;;;;;;;6.50;3.00;;;;;;;12.30;67.08;100979.25;1726232;82;21035;-75
2023/10/05 02:43:39;;;;;;;5.75;2.72;;;;;;;12.27;67.22;100977.75;1761945;81;20999;-75
2023/10/05 02:46:09;;;;;;;7.20;3.27;;;;;;;12.29;67.29;100978.92;1744023;82;21055;-74
2023/10/05 02:48:33;;;;;;;8.10;3.27;;;;;;;12.26;67.37;100974.67;1760810;81;21023;-76
2023/10/05 02:51:05;;;;;;;5.33;2.80;;;;;;;12.24;67.51;100975.91;1744831;82;21107;-76
2023/10/05 02:53:41;;;;;;;8.08;3.00;;;;;;;12.24;67.58;100958.91;1761667;81;21518;-75
2023/10/05 02:56:06;;;;;;;6.35;3.33;;;;;;;12.25;67.70;100964.72;1744063;82;21023;-76
2023/10/05 02:58:34;;;;;;;6.53;3.20;;;;;;;12.24;67.83;100969.05;1694241;82;21064;-77
2023/10/05 03:01:11;;;;;;;8.65;3.15;;;;;;;12.21;67.92;100963.41;1744887;82;21091;-76
2023/10/05 03:03:39;;;;;;;6.12;2.75;;;;;;;12.21;67.98;100966.16;1762003;81;21098;-75
2023/10/05 03:06:10;;;;;;;10.23;3.50;;;;;;;12.20;68.08;100966.36;1744749;82;21479;-75
2023/10/05 03:08:39;;;;;;;6.42;3.27;;;;;;;12.18;68.18;100969.82;1775448;81;21090;-75
2023/10/05 03:11:08;;;;;;;5.87;3.02;;;;;;;12.16;68.22;100974.13;1744768;82;21027;-75
2023/10/05 03:13:38;;;;;;;6.17;2.92;;;;;;;12.16;68.30;100975.51;1761747;81;21047;-75
2023/10/05 03:16:10;;;;;;;7.37;3.15;;;;;;;12.15;68.39;100972.44;1744744;82;21106;-75
2023/10/05 03:18:43;;;;;;;6.12;3.15;;;;;;;12.12;68.55;100968.70;1761796;81;21031;-74
2023/10/05 03:21:13;;;;;;;9.00;3.25;;;;;;;12.10;68.71;100978.18;1744763;82;21521;-75
2023/10/05 03:23:42;;;;;;;8.68;3.50;;;;;;;12.07;68.81;100975.30;1761747;81;21023;-75
2023/10/05 03:26:13;;;;;;;8.55;3.45;;;;;;;12.08;68.85;100975.63;1744890;82;21106;-77
2023/10/05 03:28:42;;;;;;;7.85;3.30;;;;;;;12.10;68.88;100974.06;1775550;81;21023;-76
2023/10/05 03:31:43;;;;;;;8.88;3.40;;;;;;;12.11;68.84;100975.77;1744846;82;21027;-75
2023/10/05 03:33:52;;;;;;;8.20;3.72;;;;;;;12.07;68.90;100979.42;1754824;81;21039;-75
2023/10/05 03:36:21;;;;;;;8.68;3.15;;;;;;;12.03;68.99;100985.82;1744600;82;21071;-75
2023/10/05 03:38:56;;;;;;;6.92;3.27;;;;;;;12.03;69.11;100978.11;1761986;81;21007;-74
2023/10/05 03:41:26;;;;;;;8.57;2.90;;;;;;;12.02;69.17;100980.00;1744677;82;21476;-75
2023/10/05 03:44:02;;;;;;;13.48;3.83;;;;;;;12.03;69.31;100982.22;1759157;81;21419;-75
2023/10/05 03:46:29;;;;;;;7.28;3.10;;;;;;;11.99;69.42;100983.13;1741733;82;21071;-75
2023/10/05 03:49:01;;;;;;;6.85;3.17;;;;;;;12.01;69.55;100987.06;1758771;81;21019;-73
2023/10/05 03:51:30;;;;;;;8.08;3.33;;;;;;;12.00;69.59;100983.98;1741854;82;21036;-76
2023/10/05 03:53:59;;;;;;;6.72;3.10;;;;;;;11.98;69.65;100987.45;1759016;81;21094;-75
2023/10/05 03:56:29;;;;;;;8.80;3.30;;;;;;;11.94;69.76;100986.13;1741433;82;21063;-75
2023/10/05 03:59:00;;;;;;;8.23;3.08;;;;;;;11.90;69.93;100984.81;1758722;81;21078;-76
2023/10/05 04:01:29;;;;;;;7.15;3.10;;;;;;;11.90;70.03;100991.15;1741536;82;21059;-76
2023/10/05 04:04:00;;;;;;;7.37;3.50;;;;;;;11.87;70.20;100991.53;1758854;81;21502;-75
2023/10/05 04:06:30;;;;;;;7.10;3.20;;;;;;;11.86;70.35;100991.20;1741588;82;21063;-75
2023/10/05 04:08:59;;;;;;;7.33;3.15;;;;;;;11.86;70.47;100988.98;1758748;81;21505;-74
2023/10/05 04:11:28;;;;;;;8.95;3.37;;;;;;;11.86;70.49;100995.33;1741540;82;21040;-76
2023/10/05 04:13:57;;;;;;;9.43;3.45;;;;;;;11.85;70.65;100995.00;1758840;81;21031;-76
2023/10/05 04:16:28;;;;;;;7.95;3.47;;;;;;;11.85;70.66;100993.63;1741616;82;21059;-73
2023/10/05 04:18:58;;;;;;;9.93;3.65;;;;;;;11.87;70.66;100996.17;1758875;81;21464;-74
2023/10/05 04:21:27;;;;;;;13.10;3.92;;;;;;;11.84;70.68;100992.44;1741510;82;21059;-75
2023/10/05 04:23:59;;;;;;;9.18;3.60;;;;;;;11.82;70.76;100994.00;1758791;81;21054;-78
2023/10/05 04:26:48;;;;;;;10.70;3.10;;;;;;;11.82;70.78;101000.88;1741443;82;21492;-75
2023/10/05 04:28:58;;;;;;;6.97;3.55;;;;;;;11.82;70.85;101011.85;1751407;81;21079;-76
2023/10/05 04:31:27;;;;;;;7.62;3.40;;;;;;;11.82;70.91;101003.61;1741567;82;21015;-76
2023/10/05 04:33:56;;;;;;;7.37;4.15;;;;;;;11.81;70.96;101002.44;1758799;81;21027;-75
2023/10/05 04:36:25;;;;;;;7.65;3.92;;;;;;;11.79;71.03;101005.89;1741458;82;21437;-76
2023/10/05 04:38:54;;;;;;;9.75;3.80;;;;;;;11.80;71.11;101004.33;1758910;81;21043;-75
2023/10/05 04:41:31;;;;;;;9.70;3.42;;;;;;;11.82;71.16;101013.75;1741421;82;21055;-75
2023/10/05 04:44:01;;;;;;;9.60;3.75;;;;;;;11.83;71.15;101012.70;1763920;81;21090;-77
2023/10/05 04:46:30;;;;;;;7.60;3.83;;;;;;;11.81;71.12;101019.77;1748966;82;21071;-75
2023/10/05 04:49:08;;;;;;;8.40;4.00;;;;;;;11.77;71.18;101020.30;1763692;81;21322;-76
2023/10/05 04:51:35;;;;;;;9.03;4.12;;;;;;;11.73;71.42;101016.56;1763276;81;21062;-75
2023/10/05 04:54:04;;;;;;;10.55;4.85;;;;;;;11.74;71.51;101020.16;1749033;82;21027;-74
2023/10/05 05:04:41;;;;;;;;;;;;;;;11.66;71.61;101025.19;1734121;82;21023;-75
2023/10/05 05:06:59;;;;;;;10.53;4.15;;;;;;;11.65;71.69;101030.88;1761497;81;20305;-77
2023/10/05 05:09:35;;;;;;;12.00;4.55;;;;;;;11.67;71.83;101023.30;1748983;82;21055;-74
2023/10/05 05:12:16;;;;;;;11.60;4.20;;;;;;;11.71;72.00;101033.75;1763778;81;21046;-75
2023/10/05 05:14:49;;;;;;;;;;;;;;;11.75;72.09;101035.59;1751370;82;21498;-77
2023/10/05 05:17:22;;;;;;;8.38;4.05;;;;;;;11.81;72.13;101039.50;1763006;81;20517;-73
2023/10/05 05:19:48;;;;;;;8.35;3.95;;;;;;;11.79;72.06;101030.60;1748812;82;21012;-75
2023/10/05 05:22:18;;;;;;;10.75;4.03;;;;;;;11.78;72.19;101037.98;1763734;81;21038;-75
2023/10/05 05:24:47;;;;;;;9.85;3.85;;;;;;;11.82;72.27;101045.33;1748924;82;21007;-77
2023/10/05 05:29:51;;;;;;;9.43;3.67;;;;;;;11.85;72.41;101037.55;1748972;82;21542;-77
2023/10/05 05:32:22;;;;;;;9.70;3.77;;;;;;;11.89;72.48;101042.15;1763475;81;21094;-76
2023/10/05 05:34:50;;;;;;;8.88;4.03;;;;;;;11.92;72.49;101040.39;1748904;82;21043;-76
2023/10/05 05:37:29;;;;;;;8.65;4.17;;;;;;;11.93;72.44;101040.20;1763533;81;21730;-77
2023/10/05 05:40:12;;;;;;;9.18;4.20;;;;;;;11.94;72.55;101036.93;1748889;82;21063;-74
2023/10/05 05:42:31;;;;;;;13.28;4.95;;;;;;;11.96;72.57;101038.97;1760012;81;21071;-74
2023/10/05 05:45:06;;;;;;;10.10;3.98;;;;;;;12.03;72.56;101035.78;1741350;82;21067;-75
2023/10/05 05:47:32;;;;;;;11.55;3.70;;;;;;;12.07;72.45;101032.98;1758143;81;21023;-75
2023/10/05 05:50:03;;;;;;;16.85;4.22;;;;;;;12.11;72.37;101037.05;1741721;82;21070;-73
2023/10/05 05:52:34;;;;;;;11.63;4.03;;;;;;;12.15;72.30;101040.27;1758858;81;21043;-75
2023/10/05 05:55:10;;;;;;;13.30;4.08;;;;;;;12.19;72.29;101042.95;1741456;82;21086;-75
2023/10/05 05:57:34;;;;;;;13.78;4.08;;;;;;;12.22;72.22;101043.94;1758319;81;21039;-74
2023/10/05 06:00:11;;;;;;;10.78;4.03;;;;;;;12.24;72.11;101047.34;1741753;82;21075;-75
2023/10/05 06:02:42;;;;;;;8.75;3.95;;;;;;;12.23;72.06;101044.27;1758832;81;21046;-74
2023/10/05 06:05:12;;;;;;;12.18;4.12;;;;;;;12.22;72.11;101057.16;1741428;82;21035;-77
2023/10/05 06:07:43;;;;;;;9.60;4.33;;;;;;;12.23;72.18;101045.64;1758781;81;21161;-76
2023/10/05 06:10:12;;;;;;;14.78;4.50;;;;;;;12.23;72.25;101053.37;1741426;82;21003;-76
2023/10/05 06:12:48;;;;;;;10.25;4.08;;;;;;;12.26;72.26;101050.23;1758849;81;21019;-75
2023/10/05 06:15:16;;;;;;;10.08;4.20;;;;;;;12.32;72.32;101054.95;1741479;82;21063;-76
2023/10/05 06:17:44;;;;;;;9.85;4.20;;;;;;;12.37;72.23;101057.16;1758935;81;20999;-77
2023/10/05 06:20:14;;;;;;;9.18;4.22;;;;;;;12.43;72.19;101056.91;1741567;82;21091;-75
2023/10/05 06:22:47;;;;;;;9.15;4.28;;;;;;;12.48;72.12;101062.67;1758934;81;21039;-75
2023/10/05 06:25:16;;;;;;;11.48;4.12;;;;;;;12.51;71.95;101054.89;1741514;82;21036;-75
2023/10/05 06:27:51;;;;;;;13.15;4.60;;;;;;;12.54;71.86;101060.52;1758738;81;21557;-76
2023/10/05 06:30:17;;;;;;;11.93;4.30;;;;;;;12.55;71.81;101053.98;1741506;82;21024;-75
2023/10/05 06:32:47;;;;;;;8.50;3.98;;;;;;;12.58;71.74;101062.69;1758780;81;21489;-76
2023/10/05 06:35:20;;;;;;;10.28;4.08;;;;;;;12.61;71.73;101066.94;1741593;82;21539;-76
2023/10/05 06:37:49;;;;;;;10.95;4.22;;;;;;;12.64;71.72;101069.30;1729694;81;21110;-76
2023/10/05 06:40:21;;;;;;;8.83;3.72;;;;;;;12.66;71.60;101065.83;1741534;82;21468;-76
2023/10/05 06:42:55;;;;;;;10.85;4.20;;;;;;;12.70;71.56;101069.89;1756417;81;21043;-76
2023/10/05 06:45:25;;;;;;;14.23;4.45;;;;;;;12.73;71.47;101065.91;1750073;82;21040;-76
2023/10/05 06:47:54;;;;;;;7.83;3.75;;;;;;;12.77;71.46;101071.34;1725306;83;21029;-75
2023/10/05 06:50:23;;;;;;;10.93;4.30;;;;;;;12.83;71.35;101066.43;1741353;82;21087;-76
2023/10/05 06:52:52;;;;;;;14.95;4.47;;;;;;;12.85;71.16;101069.84;1725288;82;21058;-74
2023/10/05 06:55:21;;;;;;;11.55;4.35;;;;;;;12.88;71.11;101066.17;1741251;82;21060;-74
2023/10/05 06:57:51;;;;;;;11.55;4.40;;;;;;;12.94;71.12;101070.03;1725074;82;21540;-74
2023/10/05 07:00:22;;;;;;;9.55;4.47;;;;;;;12.99;70.95;101074.42;1741199;82;21055;-76
2023/10/05 07:02:58;;;;;;;10.32;4.60;;;;;;;13.05;70.85;101081.06;1725148;83;21789;-76
2023/10/05 07:05:23;;;;;;;12.37;4.55;;;;;;;13.09;70.75;101083.75;1724939;83;21019;-75
2023/10/05 07:07:53;;;;;;;13.05;4.62;;;;;;;13.15;70.65;101088.46;1741283;82;21036;-73
2023/10/05 07:10:23;;;;;;;8.78;4.55;;;;;;;13.18;70.38;101088.09;1725316;83;21446;-74
2023/10/05 07:12:52;;;;;;;9.55;4.53;;;;;;;13.20;70.39;101084.09;1741220;82;21059;-74
2023/10/05 07:15:22;;;;;;;7.10;3.92;;;;;;;13.27;70.31;101091.88;1725261;83;21081;-76
2023/10/05 07:17:51;;;;;;;11.93;3.72;;;;;;;13.32;70.13;101085.78;1741337;82;21071;-74
2023/10/05 07:20:22;;;;;;;9.20;4.17;;;;;;;13.32;70.09;101083.03;1725282;82;21035;-75
2023/10/05 07:22:51;;;;;;;10.28;4.20;;;;;;;13.35;70.11;101076.28;1741662;82;21448;-77
2023/10/05 07:25:21;;;;;;;10.13;4.60;;;;;;;13.40;70.06;101075.16;1725465;83;21054;-77
2023/10/05 07:27:51;;;;;;;9.98;4.12;;;;;;;13.45;70.01;101072.13;1741597;82;21032;-75
2023/10/05 07:30:20;;;;;;;8.78;4.08;;;;;;;13.52;69.93;101069.42;1725202;83;21532;-77
2023/10/05 07:32:49;;;;;;;11.78;4.33;;;;;;;13.57;69.78;101064.16;1741414;82;21055;-76
2023/10/05 07:35:23;;;;;;;10.08;3.92;;;;;;;13.62;69.70;101070.77;1721716;83;21046;-76
2023/10/05 07:37:53;;;;;;;7.78;3.72;;;;;;;13.72;69.43;101070.44;1741496;82;21024;-77
2023/10/05 07:40:22;;;;;;;9.55;4.10;;;;;;;13.80;69.31;101069.42;1725250;83;21077;-74
2023/10/05 07:42:51;;;;;;;13.65;4.10;;;;;;;13.86;69.03;101063.11;1742543;82;21521;-75
2023/10/05 07:45:22;;;;;;;10.85;3.90;;;;;;;13.94;68.89;101061.56;1741916;82;21095;-73
2023/10/05 07:47:51;;;;;;;13.00;3.95;;;;;;;14.15;68.88;101060.08;1775305;80;21475;-73
2023/10/05 07:50:23;;;;;;;10.68;3.83;;;;;;;14.52;68.28;101057.42;1738888;81;21031;-76
2023/10/05 07:52:51;;;;;;;15.63;8.28;;;;;;;14.94;67.11;101055.38;1745703;81;21033;-76
2023/10/05 07:55:23;;;;;;;10.78;4.12;;;;;;;15.35;66.32;101048.84;1801739;79;21057;-74
2023/10/05 07:57:56;;;;;;;10.63;4.40;;;;;;;15.74;64.48;101050.77;1800699;80;21014;-75
2023/10/05 08:00:25;;;;;;;11.03;4.03;;;;;;;16.10;63.09;101045.56;1816946;79;21463;-73
2023/10/05 08:02:54;;;;;;;10.65;3.87;;;;;;;16.44;61.88;101049.06;1817875;79;21011;-70
2023/10/05 08:05:24;;;;;;;12.07;4.22;;;;;;;16.74;61.44;101040.51;1748607;82;21011;-77
2023/10/05 08:07:54;;;;;;;12.43;4.15;;;;;;;17.04;60.70;101039.38;1754028;81;21025;-75
2023/10/05 08:10:23;;;;;;;14.10;4.78;;;;;;;17.32;59.14;101040.31;1744618;81;21075;-77
2023/10/05 08:12:53;;;;;;;11.90;4.85;;;;;;;17.57;58.08;101045.02;1744601;82;21049;-75
2023/10/05 08:15:22;;;;;;;9.13;4.62;;;;;;;17.76;56.78;101037.06;1744436;81;21001;-76
2023/10/05 08:17:51;;;;;;;14.58;4.30;;;;;;;17.92;56.34;101030.06;1744714;81;21116;-75
2023/10/05 08:20:20;;;;;;;10.75;4.50;;;;;;;18.12;55.93;101031.22;1744578;82;21077;-77
2023/10/05 08:22:51;;;;;;;9.03;4.33;;;;;;;18.30;55.10;101024.30;1743993;82;21037;-76
2023/10/05 08:25:22;;;;;;;9.08;3.80;;;;;;;18.35;54.36;101032.23;1753829;81;21043;-74
2023/10/05 08:27:51;;;;;;;10.48;3.77;;;;;;;18.35;53.79;101032.77;1741336;82;21439;-74
2023/10/05 08:30:24;;;;;;;8.95;4.10;;;;;;;18.23;53.56;101025.77;1758696;81;21087;-77
2023/10/05 08:32:55;;;;;;;9.75;3.87;;;;;;;18.10;53.87;101035.61;1741486;82;21084;-76
2023/10/05 08:35:26;;;;;;;11.68;4.25;;;;;;;18.05;54.11;101031.30;1758562;81;21015;-76
2023/10/05 08:37:57;;;;;;;10.80;4.47;;;;;;;17.98;53.84;101021.67;1741392;82;21023;-75
2023/10/05 08:43:08;;;;;;;10.72;3.98;;;;;;;17.69;54.13;101024.66;1741851;82;21063;-76
2023/10/05 08:45:46;;;;;;;11.90;3.72;;;;;;;17.53;54.45;101014.64;1758577;81;21035;-75
2023/10/05 08:48:34;;;;;;;8.28;3.15;;;;;;;17.44;54.76;101016.86;1747088;82;21135;-76
2023/10/05 08:51:24;;;;;;;7.60;3.60;;;;;;;17.36;54.57;101013.84;1758204;81;21071;-74
2023/10/05 08:53:49;;;;;;;10.00;3.20;;;;;;;17.27;54.77;101008.28;1752031;81;21059;-70
2023/10/05 08:56:20;;;;;;;9.68;3.35;;;;;;;17.18;55.06;101006.87;1746977;82;21070;-74
2023/10/05 08:58:49;;;;;;;8.25;3.25;;;;;;;17.13;55.31;101015.02;1779942;80;21024;-75
2023/10/05 09:01:30;;;;;;;12.00;3.87;;;;;;;17.06;55.54;101003.15;1748172;81;21645;-74
2023/10/05 09:06:59;;;;;;;8.63;3.55;;;;;;;17.02;56.01;100994.44;1773934;81;21084;-74
2023/10/05 09:09:37;;;;;;;10.08;3.70;;;;;;;17.07;55.74;100999.30;1773949;81;21037;-73
2023/10/05 09:12:32;;;;;;;9.10;2.98;;;;;;;17.09;55.67;100999.39;1774021;81;21550;-73
2023/10/05 09:15:05;;;;;;;8.95;3.95;;;;;;;17.14;54.80;100993.71;1772395;81;21034;-76
2023/10/05 09:17:34;;;;;;;10.18;3.33;;;;;;;17.14;54.87;101000.09;1774034;81;21064;-75
2023/10/05 09:20:23;;;;;;;9.53;3.20;;;;;;;17.18;54.39;100999.11;1773843;81;21497;-73
2023/10/05 09:22:55;;;;;;;7.72;3.37;;;;;;;17.23;54.20;100998.73;1775351;80;21074;-74
2023/10/05 09:25:27;;;;;;;8.03;2.87;;;;;;;17.25;53.99;100999.89;1782497;80;21459;-74
2023/10/05 09:27:59;;;;;;;7.53;3.22;;;;;;;17.26;54.11;100998.81;1751868;82;21031;-73
2023/10/05 09:30:30;;;;;;;9.98;3.47;;;;;;;17.31;54.17;100990.14;1736243;81;21086;-77
2023/10/05 09:33:10;;;;;;;8.55;3.45;;;;;;;17.32;54.04;100995.14;1751850;82;21037;-76
2023/10/05 09:35:39;;;;;;;8.00;3.12;;;;;;;17.34;53.99;100989.68;1753698;81;21215;-73
2023/10/05 09:38:09;;;;;;;7.85;3.50;;;;;;;17.32;53.74;100993.22;1743928;81;21553;-73
2023/10/05 09:40:38;;;;;;;8.78;3.77;;;;;;;17.32;53.64;100989.06;1730690;82;21086;-73
2023/10/05 09:43:07;;;;;;;9.23;3.35;;;;;;;17.32;53.68;100988.22;1736632;81;21073;-74
2023/10/05 09:45:38;;;;;;;11.90;3.98;;;;;;;17.31;53.68;100985.98;1751283;81;21082;-73
2023/10/05 09:48:07;;;;;;;7.65;2.98;;;;;;;17.28;53.75;100982.82;1766891;81;21085;-74
2023/10/05 09:50:36;;;;;;;7.15;3.00;;;;;;;17.26;53.46;100984.44;1783816;80;21475;-75
2023/10/05 09:53:06;;;;;;;9.83;3.25;;;;;;;17.23;53.53;100982.66;1765395;80;21031;-73
2023/10/05 09:55:35;;;;;;;12.28;4.42;;;;;;;17.23;53.48;100974.34;1752666;82;21452;-73
2023/10/05 09:58:12;;;;;;;7.10;3.30;;;;;;;17.20;53.60;100968.72;1755503;80;21102;-73
2023/10/05 10:03:10;;;;;;;11.28;3.40;;;;;;;17.29;53.91;100967.36;1783800;80;21042;-74
2023/10/05 10:05:51;;;;;;;7.92;3.30;;;;;;;17.31;53.75;100954.12;1783739;80;21079;-72
2023/10/05 10:08:25;;;;;;;6.25;2.85;;;;;;;17.35;53.64;100956.75;1783866;80;21078;-74
2023/10/05 10:11:07;;;;;;;9.13;3.50;;;;;;;17.39;53.56;100958.52;1756014;80;21483;-72
2023/10/05 10:13:38;;;;;;;11.93;3.37;;;;;;;17.38;53.42;100959.60;1752987;82;21440;-74
2023/10/05 10:16:22;;;;;;;9.03;3.40;;;;;;;17.37;53.59;100954.59;1752969;82;21569;-76
2023/10/05 10:19:03;;;;;;;7.75;3.30;;;;;;;17.37;53.39;100962.91;1753222;82;21115;-74
2023/10/05 10:21:28;;;;;;;6.55;3.22;;;;;;;17.33;53.47;100964.98;1751653;82;21024;-73
2023/10/05 10:24:08;;;;;;;8.50;3.20;;;;;;;17.34;53.02;100955.59;1752844;82;21043;-74
2023/10/05 10:26:45;;;;;;;9.50;3.00;;;;;;;17.33;52.95;100954.75;1752875;82;21047;-72
2023/10/05 10:29:16;;;;;;;8.08;3.20;;;;;;;17.35;52.92;100946.20;1752554;82;21075;-75
2023/10/05 10:31:48;;;;;;;5.58;2.72;;;;;;;17.34;52.91;100948.13;1752792;82;21491;-73
2023/10/05 10:34:49;;;;;;;10.50;4.92;;;;;;;17.39;53.01;100953.83;1726526;82;21074;-73
2023/10/05 10:37:11;;;;;;;8.83;3.83;;;;;;;17.42;52.91;100951.14;1751808;82;21007;-71
2023/10/05 10:39:46;;;;;;;8.28;3.10;;;;;;;17.49;52.81;100949.14;1679176;82;21480;-73
2023/10/05 10:42:18;;;;;;;7.85;3.05;;;;;;;17.53;52.31;100948.14;1752410;82;21083;-72
2023/10/05 10:47:26;;;;;;;5.10;2.60;;;;;;;17.52;52.12;100943.14;1721574;83;21054;-73
2023/10/05 10:50:15;;;;;;;6.67;2.75;;;;;;;17.57;52.17;100926.70;1720805;83;21449;-74
2023/10/05 10:52:43;;;;;;;6.95;2.95;;;;;;;17.62;51.84;100921.84;1721582;83;21411;-74
2023/10/05 10:55:17;;;;;;;6.65;3.08;;;;;;;17.62;51.64;100924.63;1721509;83;21085;-74
2023/10/05 10:57:53;;;;;;;10.03;3.67;;;;;;;17.61;51.49;100921.00;1721492;83;21074;-73
2023/10/05 11:03:12;;;;;;;7.95;3.15;;;;;;;17.56;51.13;100930.55;1635866;87;21024;-75
2023/10/05 11:05:52;;;;;;;10.18;3.42;;;;;;;17.53;51.42;100928.75;1676660;85;21112;-74
2023/10/05 11:08:20;;;;;;;8.05;3.20;;;;;;;17.57;51.67;100920.31;1703981;84;21189;-73
2023/10/05 11:10:59;;;;;;;10.88;3.40;;;;;;;17.59;51.71;100914.00;1721370;83;21046;-74
2023/10/05 11:13:28;;;;;;;6.70;3.05;;;;;;;17.65;51.47;100911.15;1688784;85;21809;-74
2023/10/05 11:16:00;;;;;;;6.75;2.77;;;;;;;17.65;51.05;100913.08;1718922;83;21037;-73
2023/10/05 11:18:39;;;;;;;7.30;2.60;;;;;;;17.63;51.13;100899.45;1718984;83;21049;-73
2023/10/05 11:21:18;;;;;;;8.98;3.20;;;;;;;17.62;50.86;100905.22;1719027;83;21022;-75
2023/10/05 11:23:58;;;;;;;9.38;3.05;;;;;;;17.64;51.05;100900.30;1704118;84;21055;-73
2023/10/05 11:29:07;;;;;;;11.73;3.37;;;;;;;17.67;50.67;100898.48;1695019;84;21047;-74
2023/10/05 11:31:34;;;;;;;8.70;3.05;;;;;;;17.69;50.55;100901.33;1721496;83;21082;-72
2023/10/05 11:34:09;;;;;;;7.53;3.10;;;;;;;17.73;50.41;100905.86;1684860;85;21090;-76
2023/10/05 11:36:44;;;;;;;11.80;4.37;;;;;;;17.70;50.08;100904.94;1689457;83;21053;-75
2023/10/05 11:39:21;;;;;;;7.60;2.70;;;;;;;17.65;50.19;100906.14;1696358;83;21051;-75
2023/10/05 11:41:43;;;;;;;7.72;2.77;;;;;;;17.62;49.77;100896.38;1702228;84;21134;-73
2023/10/05 11:44:24;;;;;;;7.55;3.10;;;;;;;17.60;49.57;100893.52;1737636;82;21067;-77
2023/10/05 11:46:54;;;;;;;;;;;;;;;17.59;49.41;100883.52;1758824;80;21463;-78
2023/10/05 11:49:33;;;;;;;9.90;2.65;;;;;;;17.58;49.08;100888.75;1755955;82;20155;-78
2023/10/05 11:52:11;;;;;;;5.95;3.05;;;;;;;17.57;49.14;100881.52;1756232;80;21143;-77
2023/10/05 11:54:39;;;;;;;9.43;2.92;;;;;;;17.55;49.15;100871.17;1745308;82;21015;-77
2023/10/05 11:57:07;;;;;;;8.00;3.12;;;;;;;17.54;49.28;100875.87;1756232;82;21018;-78
2023/10/05 11:59:36;;;;;;;7.83;3.10;;;;;;;17.54;49.42;100866.70;1734741;82;21035;-78
2023/10/05 12:02:12;;;;;;;11.28;3.20;;;;;;;17.56;49.32;100851.58;1784702;80;21100;-79
2023/10/05 12:04:39;;;;;;;7.83;3.72;;;;;;;17.60;49.36;100846.41;1784312;79;21046;-78
2023/10/05 12:07:13;;;;;;;8.28;3.02;;;;;;;17.67;49.12;100840.28;1784363;80;21069;-77
2023/10/05 12:09:45;;;;;;;10.68;3.20;;;;;;;17.72;49.15;100839.03;1784389;80;21073;-75
2023/10/05 12:12:14;;;;;;;10.50;2.90;;;;;;;17.79;48.91;100835.62;1784321;80;21042;-76
2023/10/05 12:14:43;;;;;;;6.83;2.85;;;;;;;17.82;48.94;100838.47;1784485;80;21021;-75
2023/10/05 12:17:12;;;;;;;10.15;3.08;;;;;;;17.85;48.80;100840.78;1784206;80;21065;-71